Time;durP1;ratioP1;P1;durP2;ratioP2;P2;SDS_P1;SDS_P2;PMS_P1;PMS_P2;Temp;Humidity;BMP_temperature;BMP_pressure;BME280_temperature;BME280_humidity;BME280_pressure;Samples;Min_cycle;Max_cycle;Signal;HPM_P1;HPM_P2
2022/03/29 00:00:40;;;;;;;9.18;6.22;;;20.80;60.00;;;;;;4910201;28;90071;-68
2022/03/29 00:03:06;;;;;;;9.77;5.70;;;20.70;60.10;;;;;;4902663;28;88012;-68
2022/03/29 00:05:33;;;;;;;8.35;5.90;;;20.70;60.00;;;;;;4906104;28;87838;-68
2022/03/29 00:07:59;;;;;;;8.63;5.63;;;20.80;60.00;;;;;;4899122;28;88229;-68
2022/03/29 00:10:25;;;;;;;9.25;5.85;;;20.70;60.00;;;;;;4898991;28;87571;-68
2022/03/29 00:12:53;;;;;;;8.90;5.88;;;20.70;60.10;;;;;;4897572;28;89076;-69
2022/03/29 00:15:22;;;;;;;9.80;6.25;;;20.70;60.10;;;;;;4890378;28;92914;-68
2022/03/29 00:17:48;;;;;;;;;;;20.70;60.00;;;;;;4891041;28;87373;-69
2022/03/29 00:20:19;;;;;;;7.18;5.25;;;20.70;60.10;;;;;;4901470;28;87543;-69
2022/03/29 00:22:47;;;;;;;8.80;6.00;;;20.70;60.00;;;;;;4900270;28;87692;-68
2022/03/29 00:25:14;;;;;;;8.73;5.38;;;20.70;59.90;;;;;;4904057;28;87610;-69
2022/03/29 00:27:42;;;;;;;9.57;6.07;;;20.70;59.90;;;;;;4907077;28;87980;-68
2022/03/29 00:30:11;;;;;;;9.37;6.60;;;20.70;59.90;;;;;;4905925;28;87120;-68
2022/03/29 00:32:38;;;;;;;8.88;6.50;;;20.70;59.80;;;;;;4899619;28;88187;-68
2022/03/29 00:35:07;;;;;;;7.45;5.65;;;20.60;59.80;;;;;;4911133;28;87363;-69
2022/03/29 00:37:33;;;;;;;7.55;5.60;;;20.60;59.90;;;;;;4909962;28;88792;-69
2022/03/29 00:39:59;;;;;;;11.73;6.28;;;20.70;59.90;;;;;;4910968;28;90135;-69
2022/03/29 00:42:27;;;;;;;7.90;6.28;;;20.60;59.90;;;;;;4912334;28;87828;-68
2022/03/29 00:44:56;;;;;;;8.97;5.70;;;20.70;59.90;;;;;;4912242;28;88401;-68
2022/03/29 00:47:21;;;;;;;7.93;5.55;;;20.60;59.80;;;;;;4912816;28;87702;-68
2022/03/29 00:49:47;;;;;;;7.93;5.03;;;20.70;59.80;;;;;;4911573;28;87582;-69
2022/03/29 00:52:13;;;;;;;7.85;5.60;;;20.60;59.60;;;;;;4911856;28;88031;-68
2022/03/29 00:54:42;;;;;;;7.72;5.53;;;20.70;59.70;;;;;;4911035;28;90083;-69
2022/03/29 00:57:11;;;;;;;7.93;5.38;;;20.70;59.60;;;;;;4913106;28;87526;-68
2022/03/29 00:59:41;;;;;;;8.07;6.17;;;20.60;59.60;;;;;;4912174;28;87691;-68
2022/03/29 01:02:07;;;;;;;7.13;5.53;;;20.60;59.70;;;;;;4910708;28;91995;-68
2022/03/29 01:04:33;;;;;;;7.97;5.65;;;20.60;59.60;;;;;;4911848;28;88687;-69
2022/03/29 01:06:59;;;;;;;7.63;5.65;;;20.60;59.60;;;;;;4912181;28;87993;-69
2022/03/29 01:09:29;;;;;;;8.20;5.63;;;20.60;59.50;;;;;;4915405;28;90228;-68
2022/03/29 01:11:57;;;;;;;7.75;5.30;;;20.60;59.50;;;;;;4914850;28;90543;-68
2022/03/29 01:14:27;;;;;;;6.63;5.25;;;20.60;59.40;;;;;;4929369;28;90985;-69
2022/03/29 01:19:38;;;;;;;7.60;5.35;;;20.60;59.50;;;;;;4914032;28;86733;-69
2022/03/29 01:22:09;;;;;;;7.00;4.90;;;20.60;59.60;;;;;;4914769;28;88095;-68
2022/03/29 01:24:46;;;;;;;6.88;5.55;;;20.60;59.50;;;;;;4915748;28;87640;-70
2022/03/29 01:27:13;;;;;;;6.80;5.30;;;20.60;59.40;;;;;;4915120;28;88436;-69
2022/03/29 01:29:43;;;;;;;9.25;5.28;;;20.60;59.60;;;;;;4913534;28;90484;-68
2022/03/29 01:32:10;;;;;;;8.00;5.60;;;20.50;59.50;;;;;;4914699;28;88973;-69
2022/03/29 01:34:39;;;;;;;8.63;5.88;;;20.60;59.50;;;;;;4900838;28;87475;-68
2022/03/29 01:37:05;;;;;;;;;;;20.50;59.30;;;;;;4892410;28;87975;-68
2022/03/29 01:39:32;;;;;;;7.05;5.65;;;20.60;59.40;;;;;;4910622;28;87048;-68
2022/03/29 01:41:57;;;;;;;7.63;5.45;;;20.50;59.30;;;;;;4903972;28;88401;-68
2022/03/29 01:44:23;;;;;;;6.25;5.03;;;20.50;59.40;;;;;;4910026;28;89565;-68
2022/03/29 01:46:49;;;;;;;8.27;5.55;;;20.50;59.30;;;;;;4902907;28;87296;-68
2022/03/29 01:49:16;;;;;;;7.82;5.40;;;20.50;59.30;;;;;;4901374;28;90275;-68
2022/03/29 01:51:42;;;;;;;8.38;5.63;;;20.50;59.50;;;;;;4882275;28;91467;-68
2022/03/29 01:54:08;;;;;;;8.05;5.63;;;20.50;59.50;;;;;;4905344;28;88721;-68
2022/03/29 01:56:34;;;;;;;7.20;5.20;;;20.50;59.50;;;;;;4903731;28;88077;-68
2022/03/29 01:59:06;;;;;;;7.15;5.10;;;20.50;59.60;;;;;;4897286;28;88025;-68
2022/03/29 02:01:47;;;;;;;8.35;5.82;;;20.50;59.50;;;;;;4901536;28;88020;-68
2022/03/29 02:04:14;;;;;;;10.45;5.47;;;20.50;59.50;;;;;;4898861;28;87711;-68
2022/03/29 02:06:43;;;;;;;6.95;5.47;;;20.50;59.50;;;;;;4899990;28;87352;-68
2022/03/29 02:09:10;;;;;;;9.10;5.05;;;20.50;59.40;;;;;;4896833;28;87039;-68
2022/03/29 02:11:40;;;;;;;6.65;5.53;;;20.50;59.50;;;;;;4898403;28;88574;-68
2022/03/29 02:14:06;;;;;;;7.35;5.07;;;20.50;59.40;;;;;;4897580;28;87940;-68
2022/03/29 02:16:35;;;;;;;9.02;6.05;;;20.50;59.50;;;;;;4907761;28;89044;-68
2022/03/29 02:19:01;;;;;;;7.00;5.07;;;20.50;59.50;;;;;;4906759;28;87411;-68
2022/03/29 02:21:27;;;;;;;6.22;5.13;;;20.50;59.50;;;;;;4900287;28;87069;-68
2022/03/29 02:23:52;;;;;;;5.97;4.65;;;20.50;59.50;;;;;;4894121;28;87420;-68
2022/03/29 02:26:18;;;;;;;6.53;5.15;;;20.50;59.40;;;;;;4898145;28;88006;-68
2022/03/29 02:28:43;;;;;;;7.18;5.30;;;20.50;59.40;;;;;;4897620;28;87499;-68
2022/03/29 02:31:12;;;;;;;8.30;5.20;;;20.50;59.50;;;;;;4897053;28;87144;-68
2022/03/29 02:33:37;;;;;;;8.02;5.47;;;20.50;59.30;;;;;;4915036;28;87840;-68
2022/03/29 02:36:03;;;;;;;6.75;4.63;;;20.50;59.50;;;;;;4916762;28;87685;-68
2022/03/29 02:38:29;;;;;;;6.60;5.15;;;20.50;59.20;;;;;;4906445;28;90009;-68
2022/03/29 02:40:58;;;;;;;4.88;4.32;;;20.50;59.50;;;;;;4924691;28;89064;-68
2022/03/29 02:43:27;;;;;;;7.88;5.60;;;20.40;59.50;;;;;;4919706;28;88906;-68
2022/03/29 02:45:53;;;;;;;6.03;4.80;;;20.40;59.40;;;;;;4921007;28;87023;-68
2022/03/29 02:48:19;;;;;;;7.00;5.05;;;20.40;59.40;;;;;;4925848;28;89693;-68
2022/03/29 02:50:44;;;;;;;6.72;5.25;;;20.40;59.40;;;;;;4915085;28;88933;-68
2022/03/29 02:53:11;;;;;;;7.93;5.32;;;20.40;59.30;;;;;;4917899;28;88372;-68
2022/03/29 02:55:37;;;;;;;7.57;4.80;;;20.40;59.20;;;;;;4912567;28;87586;-69
2022/03/29 02:58:03;;;;;;;7.03;5.22;;;20.40;59.40;;;;;;4917087;28;87225;-68
2022/03/29 03:00:29;;;;;;;6.05;4.65;;;20.40;59.30;;;;;;4919298;28;87930;-68
2022/03/29 03:02:56;;;;;;;7.18;5.22;;;20.40;59.20;;;;;;4918943;28;87799;-68
2022/03/29 03:05:24;;;;;;;6.95;5.05;;;20.40;59.20;;;;;;4918107;28;88381;-68
2022/03/29 03:07:50;;;;;;;7.57;5.05;;;20.40;59.20;;;;;;4915748;28;91484;-69
2022/03/29 03:10:16;;;;;;;5.95;4.88;;;20.40;59.20;;;;;;4918829;28;88156;-69
2022/03/29 03:12:46;;;;;;;6.82;4.75;;;20.40;59.10;;;;;;4904487;28;90016;-69
2022/03/29 03:15:14;;;;;;;6.15;4.72;;;20.40;59.10;;;;;;4902030;28;87537;-69
2022/03/29 03:17:40;;;;;;;5.90;4.38;;;20.40;59.20;;;;;;4917999;28;88195;-69
2022/03/29 03:20:07;;;;;;;6.20;5.00;;;20.40;59.20;;;;;;4912749;28;91127;-69
2022/03/29 03:22:35;;;;;;;6.05;4.65;;;20.40;59.20;;;;;;4903314;28;89971;-69
2022/03/29 03:25:00;;;;;;;7.30;5.45;;;20.40;59.20;;;;;;4923774;28;87840;-69
2022/03/29 03:27:26;;;;;;;6.28;4.97;;;20.40;59.20;;;;;;4903326;28;88894;-68
2022/03/29 03:29:52;;;;;;;7.65;5.22;;;20.40;59.10;;;;;;4913858;28;88604;-69
2022/03/29 03:32:17;;;;;;;5.68;4.47;;;20.40;59.10;;;;;;4917708;28;88884;-69
2022/03/29 03:34:43;;;;;;;6.65;4.85;;;20.40;59.20;;;;;;4916912;28;87872;-69
2022/03/29 03:37:09;;;;;;;6.07;4.43;;;20.40;59.00;;;;;;4919158;28;87850;-69
2022/03/29 03:39:37;;;;;;;7.20;4.85;;;20.40;59.10;;;;;;4916882;28;89118;-69
2022/03/29 03:42:06;;;;;;;5.93;4.80;;;20.30;59.20;;;;;;4901727;28;90942;-69
2022/03/29 03:44:32;;;;;;;;;;;20.30;59.10;;;;;;4919897;28;87815;-69
2022/03/29 03:47:00;;;;;;;6.43;5.03;;;20.30;59.10;;;;;;4920181;28;86571;-69
2022/03/29 03:49:26;;;;;;;6.53;5.07;;;20.30;58.90;;;;;;4917996;28;91088;-68
2022/03/29 03:51:52;;;;;;;5.90;4.45;;;20.30;59.00;;;;;;4921421;28;91457;-69
2022/03/29 03:54:19;;;;;;;6.00;5.03;;;20.30;58.90;;;;;;4921822;28;88481;-68
2022/03/29 03:56:45;;;;;;;6.32;4.80;;;20.30;58.90;;;;;;4921977;28;87891;-69
2022/03/29 03:59:11;;;;;;;6.00;4.80;;;20.30;58.90;;;;;;4922170;28;87958;-69
2022/03/29 04:01:37;;;;;;;5.90;4.50;;;20.30;59.60;;;;;;4922578;28;87742;-68
2022/03/29 04:04:03;;;;;;;5.78;4.40;;;20.30;58.80;;;;;;4922215;28;87625;-69
2022/03/29 04:06:31;;;;;;;6.30;5.20;;;20.30;58.80;;;;;;4913096;28;86923;-69
2022/03/29 04:08:56;;;;;;;5.78;4.32;;;20.30;58.90;;;;;;4919897;28;88418;-69
2022/03/29 04:11:26;;;;;;;5.95;4.82;;;20.30;58.80;;;;;;4913735;28;86884;-69
2022/03/29 04:13:52;;;;;;;;;;;20.30;58.90;;;;;;4919700;28;87496;-69
2022/03/29 04:16:17;;;;;;;7.03;4.85;;;20.30;58.80;;;;;;4923922;28;88085;-69
2022/03/29 04:18:43;;;;;;;6.47;4.72;;;20.30;58.80;;;;;;4909626;28;92013;-69
2022/03/29 04:21:09;;;;;;;6.65;4.85;;;20.30;58.90;;;;;;4922448;28;90214;-69
2022/03/29 04:23:35;;;;;;;6.80;4.78;;;20.30;59.00;;;;;;4920914;28;87431;-68
2022/03/29 04:26:02;;;;;;;6.40;4.47;;;20.30;58.80;;;;;;4923874;28;87251;-68
2022/03/29 04:28:28;;;;;;;5.43;4.65;;;20.30;58.90;;;;;;4914188;28;91737;-68
2022/03/29 04:30:58;;;;;;;5.50;4.43;;;20.30;58.60;;;;;;4913888;28;87812;-68
2022/03/29 04:33:24;;;;;;;4.82;3.90;;;20.30;58.70;;;;;;4906652;28;87422;-69
2022/03/29 04:35:50;;;;;;;7.03;4.88;;;20.30;58.80;;;;;;4907963;28;90357;-69
2022/03/29 04:38:16;;;;;;;5.90;4.13;;;20.30;58.90;;;;;;4898379;28;87325;-69
2022/03/29 04:40:41;;;;;;;5.60;4.45;;;20.30;58.90;;;;;;4898976;28;88046;-69
2022/03/29 04:43:07;;;;;;;5.60;4.43;;;20.30;58.80;;;;;;4891809;28;88394;-69
2022/03/29 04:45:33;;;;;;;6.93;4.50;;;20.20;58.80;;;;;;4904343;28;87642;-69
2022/03/29 04:47:59;;;;;;;6.47;4.50;;;20.20;59.50;;;;;;4897300;28;88046;-69
2022/03/29 04:50:25;;;;;;;6.65;4.47;;;20.20;58.70;;;;;;4902200;28;87314;-69
2022/03/29 04:52:51;;;;;;;5.70;4.55;;;20.20;58.60;;;;;;4885272;28;88353;-69
2022/03/29 04:55:17;;;;;;;5.10;4.50;;;20.20;58.70;;;;;;4900090;28;87878;-69
2022/03/29 04:57:47;;;;;;;6.00;4.82;;;20.20;58.60;;;;;;4902106;28;88455;-69
2022/03/29 05:00:15;;;;;;;6.53;4.55;;;20.20;58.70;;;;;;4900407;28;88755;-69
2022/03/29 05:02:44;;;;;;;5.70;4.50;;;20.20;58.60;;;;;;4897032;28;87365;-68
2022/03/29 05:05:13;;;;;;;5.63;4.40;;;20.20;58.60;;;;;;4893365;28;87546;-68
2022/03/29 05:07:40;;;;;;;7.90;4.32;;;20.20;58.70;;;;;;4896530;28;92628;-69
2022/03/29 05:10:08;;;;;;;5.97;4.60;;;20.20;58.50;;;;;;4897787;28;88834;-69
2022/03/29 05:12:49;;;;;;;6.57;5.05;;;20.20;58.60;;;;;;4902686;28;87603;-69
2022/03/29 05:15:17;;;;;;;7.65;4.57;;;20.20;58.70;;;;;;4900854;28;87532;-69
2022/03/29 05:17:43;;;;;;;6.28;4.47;;;20.20;58.70;;;;;;4900819;28;88938;-69
2022/03/29 05:20:11;;;;;;;5.55;4.28;;;20.20;58.50;;;;;;4906699;28;89665;-69
2022/03/29 05:22:45;;;;;;;5.32;4.07;;;20.20;58.70;;;;;;4908777;28;87930;-69
2022/03/29 05:25:15;;;;;;;5.13;4.15;;;20.30;58.60;;;;;;4900539;28;87435;-69
2022/03/29 05:27:41;;;;;;;4.82;4.05;;;20.30;58.60;;;;;;4901941;28;89083;-69
2022/03/29 05:30:08;;;;;;;9.30;4.97;;;20.30;58.60;;;;;;4901569;28;89608;-68
2022/03/29 05:32:34;;;;;;;8.27;4.45;;;20.30;58.50;;;;;;4889394;28;89177;-68
2022/03/29 05:34:59;;;;;;;5.75;4.65;;;20.40;58.00;;;;;;4911941;28;87740;-68
2022/03/29 05:37:25;;;;;;;9.23;4.50;;;20.30;58.30;;;;;;4910753;28;88131;-69
2022/03/29 05:39:51;;;;;;;9.10;4.68;;;20.30;58.50;;;;;;4911596;28;87276;-69
2022/03/29 05:42:21;;;;;;;6.97;4.95;;;20.30;58.80;;;;;;4911270;28;87814;-69
2022/03/29 05:44:47;;;;;;;7.85;5.22;;;20.40;59.30;;;;;;4911269;28;87289;-69
2022/03/29 05:49:59;;;;;;;10.38;4.93;;;20.40;59.40;;;;;;4912342;28;87941;-69
2022/03/29 05:52:25;;;;;;;17.25;5.30;;;20.40;58.60;;;;;;4911316;28;87539;-68
2022/03/29 05:54:51;;;;;;;11.25;4.53;;;20.50;58.90;;;;;;4913655;28;88713;-69
2022/03/29 05:57:17;;;;;;;16.45;6.60;;;20.50;58.90;;;;;;4916385;28;90874;-68
2022/03/29 05:59:45;;;;;;;17.20;7.15;;;20.50;59.20;;;;;;4915057;28;88207;-69
2022/03/29 06:02:11;;;;;;;11.57;5.90;;;20.50;59.30;;;;;;4913177;28;87317;-68
2022/03/29 06:04:40;;;;;;;18.92;6.55;;;20.60;59.50;;;;;;4913776;28;87356;-70
2022/03/29 06:07:08;;;;;;;24.23;7.97;;;20.60;59.60;;;;;;4911513;28;90591;-69
2022/03/29 06:09:35;;;;;;;25.17;7.75;;;20.60;59.60;;;;;;4914345;28;87142;-68
2022/03/29 06:12:05;;;;;;;27.25;8.85;;;20.70;59.30;;;;;;4915232;28;87412;-68
2022/03/29 06:14:31;;;;;;;20.83;7.38;;;20.70;59.50;;;;;;4915496;28;86960;-69
2022/03/29 06:16:56;;;;;;;29.88;9.02;;;20.70;60.00;;;;;;4916469;28;90514;-68
2022/03/29 06:19:22;;;;;;;26.50;8.23;;;20.70;59.80;;;;;;4914274;28;88258;-69
2022/03/29 06:21:48;;;;;;;30.25;8.13;;;20.70;60.00;;;;;;4912321;28;88041;-68
2022/03/29 06:24:14;;;;;;;23.67;7.90;;;20.70;60.50;;;;;;4911029;28;90920;-68
2022/03/29 06:26:40;;;;;;;26.08;7.57;;;20.70;60.60;;;;;;4906981;28;88210;-69
2022/03/29 06:29:07;;;;;;;21.08;7.95;;;20.70;60.60;;;;;;4907922;28;89318;-69
2022/03/29 06:31:33;;;;;;;23.70;8.38;;;20.80;60.80;;;;;;4910064;28;87142;-69
2022/03/29 06:33:59;;;;;;;25.65;10.05;;;20.70;59.70;;;;;;4903632;28;87640;-68
2022/03/29 06:36:25;;;;;;;28.45;10.02;;;20.60;59.30;;;;;;4896098;28;88097;-69
2022/03/29 06:38:51;;;;;;;22.30;8.85;;;20.70;59.60;;;;;;4879070;28;91495;-69
2022/03/29 06:41:23;;;;;;;26.60;8.98;;;20.60;60.30;;;;;;4889619;28;87839;-69
2022/03/29 06:43:50;;;;;;;23.42;9.00;;;20.60;60.40;;;;;;4845305;28;87490;-69
2022/03/29 06:46:16;;;;;;;21.25;7.93;;;20.60;60.90;;;;;;4897241;28;90876;-69
2022/03/29 06:48:43;;;;;;;18.48;7.63;;;20.60;61.30;;;;;;4898532;28;88165;-69
2022/03/29 06:51:09;;;;;;;24.05;10.05;;;20.60;61.30;;;;;;4901411;28;87634;-69
2022/03/29 06:53:38;;;;;;;19.35;7.82;;;20.60;59.70;;;;;;4891607;28;90265;-69
2022/03/29 06:56:04;;;;;;;26.48;9.35;;;20.60;60.70;;;;;;4906948;28;91162;-69
2022/03/29 06:58:30;;;;;;;25.30;8.32;;;20.60;61.00;;;;;;4900800;28;87871;-69
2022/03/29 07:00:56;;;;;;;23.65;7.60;;;20.70;61.30;;;;;;4914882;28;88094;-69
2022/03/29 07:03:23;;;;;;;19.00;7.90;;;20.60;61.50;;;;;;4912423;28;87555;-69
2022/03/29 07:05:49;;;;;;;24.60;8.55;;;20.70;61.90;;;;;;4900705;28;89490;-67
2022/03/29 07:08:16;;;;;;;17.08;7.57;;;20.70;61.80;;;;;;4895657;28;88076;-69
2022/03/29 07:13:27;;;;;;;22.65;8.43;;;20.70;61.40;;;;;;4898166;28;87440;-69
2022/03/29 07:15:53;;;;;;;22.35;7.97;;;20.70;61.60;;;;;;4900557;28;87950;-69
2022/03/29 07:18:18;;;;;;;24.05;8.60;;;20.80;61.90;;;;;;4898643;28;88265;-69
2022/03/29 07:20:44;;;;;;;17.77;7.30;;;20.80;61.80;;;;;;4895109;28;87995;-69
2022/03/29 07:23:10;;;;;;;25.35;8.65;;;20.80;61.90;;;;;;4886493;28;88242;-69
2022/03/29 07:25:37;;;;;;;20.08;8.70;;;20.80;62.30;;;;;;4906095;28;90110;-69
2022/03/29 07:28:03;;;;;;;28.25;8.10;;;20.80;62.00;;;;;;4907550;28;90474;-68
2022/03/29 07:30:33;;;;;;;23.20;8.73;;;20.80;61.80;;;;;;4899426;28;87165;-68
2022/03/29 07:32:59;;;;;;;22.90;8.10;;;20.80;61.30;;;;;;4908591;28;90118;-68
2022/03/29 07:35:26;;;;;;;21.98;7.72;;;20.90;61.40;;;;;;4910698;28;88575;-68
2022/03/29 07:37:53;;;;;;;24.48;8.55;;;20.90;61.80;;;;;;4911123;28;88903;-68
2022/03/29 07:40:21;;;;;;;26.92;9.63;;;20.90;62.00;;;;;;4909545;28;87680;-68
2022/03/29 07:42:47;;;;;;;21.05;8.55;;;20.90;61.70;;;;;;4918912;28;88203;-68
2022/03/29 07:45:13;;;;;;;23.02;8.90;;;20.90;61.40;;;;;;4908677;28;88375;-68
2022/03/29 07:47:41;;;;;;;20.55;9.05;;;20.90;61.10;;;;;;4909154;28;87764;-69
2022/03/29 07:50:08;;;;;;;22.23;8.85;;;20.90;60.50;;;;;;4917114;28;88028;-68
2022/03/29 07:52:37;;;;;;;24.85;8.65;;;20.90;60.50;;;;;;4911302;28;87832;-68
2022/03/29 07:55:04;;;;;;;30.17;8.82;;;20.90;60.90;;;;;;4907426;28;91122;-68
2022/03/29 07:57:30;;;;;;;20.63;8.50;;;20.90;61.10;;;;;;4917606;28;90510;-68
2022/03/29 07:59:56;;;;;;;23.73;8.73;;;20.90;60.80;;;;;;4909189;28;88039;-66
2022/03/29 08:02:22;;;;;;;21.90;8.27;;;20.90;60.70;;;;;;4909354;28;87444;-68
2022/03/29 08:04:48;;;;;;;20.90;7.80;;;20.90;60.50;;;;;;4911227;28;87224;-68
2022/03/29 08:07:15;;;;;;;21.63;8.15;;;20.90;60.90;;;;;;4924826;28;91377;-69
2022/03/29 08:09:41;;;;;;;24.08;9.63;;;20.90;61.40;;;;;;4910076;28;87420;-68
2022/03/29 08:12:07;;;;;;;24.05;8.02;;;20.90;60.60;;;;;;4910153;28;87750;-68
2022/03/29 08:14:39;;;;;;;20.67;8.00;;;20.90;60.50;;;;;;4907514;28;88083;-69
2022/03/29 08:17:06;;;;;;;23.17;7.35;;;20.90;61.50;;;;;;4917621;28;89258;-68
2022/03/29 08:19:32;;;;;;;19.88;8.73;;;20.90;61.50;;;;;;4910269;28;87049;-69
2022/03/29 08:21:57;;;;;;;19.17;7.85;;;21.00;61.90;;;;;;4909871;28;87329;-69
2022/03/29 08:24:24;;;;;;;18.17;7.18;;;20.90;61.90;;;;;;4923871;28;92297;-68
2022/03/29 08:26:52;;;;;;;18.92;7.43;;;20.90;61.80;;;;;;4910517;28;89966;-68
2022/03/29 08:29:20;;;;;;;22.20;8.15;;;20.90;61.80;;;;;;4910597;28;87477;-67
2022/03/29 08:31:47;;;;;;;16.92;7.47;;;21.00;62.00;;;;;;4924450;28;90812;-68
2022/03/29 08:34:13;;;;;;;16.38;6.50;;;20.90;62.50;;;;;;4915577;28;91456;-68
2022/03/29 08:36:40;;;;;;;21.70;7.38;;;20.90;61.90;;;;;;4906933;28;88943;-68
2022/03/29 08:39:07;;;;;;;21.40;7.60;;;21.00;62.00;;;;;;4907934;28;87450;-68
2022/03/29 08:41:37;;;;;;;18.48;7.55;;;21.00;61.70;;;;;;4924933;28;89770;-69
2022/03/29 08:44:03;;;;;;;17.73;7.10;;;21.00;61.80;;;;;;4907281;28;89006;-68
2022/03/29 08:46:35;;;;;;;18.77;7.38;;;21.00;61.70;;;;;;4908268;28;89613;-68
2022/03/29 08:49:03;;;;;;;18.95;7.70;;;21.00;61.90;;;;;;4908146;28;88050;-68
2022/03/29 08:51:30;;;;;;;19.10;7.03;;;21.00;61.60;;;;;;4913968;28;90088;-68
2022/03/29 08:54:03;;;;;;;22.35;7.65;;;21.00;61.90;;;;;;4914012;28;88448;-67
2022/03/29 08:56:30;;;;;;;13.82;5.35;;;21.10;62.00;;;;;;4906887;28;89382;-68
2022/03/29 08:58:57;;;;;;;16.35;4.88;;;21.00;61.80;;;;;;4908813;28;87921;-68
2022/03/29 09:01:23;;;;;;;17.13;7.60;;;21.00;61.60;;;;;;4916094;28;89127;-68
2022/03/29 09:04:18;;;;;;;16.25;7.32;;;21.00;60.90;;;;;;4889349;28;88046;-67
2022/03/29 09:06:50;;;;;;;22.33;6.75;;;21.00;61.30;;;;;;4893945;28;89297;-67
2022/03/29 09:09:45;;;;;;;23.73;7.85;;;21.10;61.00;;;;;;4895218;28;87565;-66
2022/03/29 09:12:44;;;;;;;17.67;7.45;;;21.00;61.30;;;;;;4910874;28;87919;-67
2022/03/29 09:15:29;;;;;;;17.95;7.80;;;21.00;61.30;;;;;;4906718;28;89816;-67
2022/03/29 09:18:24;;;;;;;15.60;7.03;;;21.00;61.50;;;;;;4906106;28;92033;-67
2022/03/29 09:21:51;;;;;;;21.50;7.55;;;21.00;62.10;;;;;;4906676;28;88080;-66
2022/03/29 09:24:44;;;;;;;22.98;8.15;;;21.00;61.70;;;;;;4892007;28;88106;-67
2022/03/29 09:27:54;;;;;;;21.15;7.78;;;21.00;62.00;;;;;;4903016;28;87769;-67
2022/03/29 09:30:45;;;;;;;23.05;7.00;;;21.00;61.90;;;;;;4903240;28;90183;-67
2022/03/29 09:33:32;;;;;;;19.38;7.93;;;21.00;61.70;;;;;;4917092;28;87070;-67
2022/03/29 09:39:00;;;;;;;16.25;7.47;;;21.10;62.20;;;;;;3770097;26;89575;-68
2022/03/29 09:42:02;;;;;;;18.70;8.05;;;21.10;62.10;;;;;;4881603;28;89594;-67
2022/03/29 09:44:51;;;;;;;21.13;8.98;;;21.10;62.50;;;;;;4894671;28;88982;-67
2022/03/29 09:47:22;;;;;;;17.75;8.63;;;21.10;62.00;;;;;;4894003;28;90139;-68
2022/03/29 09:49:48;;;;;;;16.85;7.45;;;21.10;62.00;;;;;;4864059;28;91734;-68
2022/03/29 09:52:23;;;;;;;20.80;7.72;;;21.10;62.30;;;;;;4885380;28;89109;-67
2022/03/29 09:58:18;;;;;;;16.20;8.98;;;21.10;62.00;;;;;;4875220;28;88214;-68
2022/03/29 10:00:49;;;;;;;18.05;8.32;;;21.10;62.20;;;;;;4889506;28;88327;-68
2022/03/29 10:03:27;;;;;;;15.90;8.50;;;21.10;62.30;;;;;;4888060;28;88239;-68
2022/03/29 10:06:13;;;;;;;16.00;8.63;;;21.10;62.60;;;;;;4898260;28;87381;-68
2022/03/29 10:09:32;;;;;;;19.20;8.05;;;21.10;62.50;;;;;;4898700;28;88148;-68
2022/03/29 10:12:06;;;;;;;14.32;7.35;;;21.10;62.40;;;;;;4887048;28;89271;-69
2022/03/29 10:14:38;;;;;;;18.60;7.72;;;21.10;62.80;;;;;;4897706;28;89179;-67
2022/03/29 10:17:08;;;;;;;21.02;8.45;;;21.10;62.30;;;;;;4895283;28;87855;-68
2022/03/29 10:20:17;;;;;;;16.33;7.53;;;21.10;62.90;;;;;;4892477;28;87795;-68
2022/03/29 10:22:58;;;;;;;15.55;7.00;;;21.10;63.00;;;;;;4874435;28;88672;-67
2022/03/29 10:25:32;;;;;;;15.52;7.45;;;21.10;62.80;;;;;;4895593;28;90512;-68
2022/03/29 10:28:06;;;;;;;14.57;6.90;;;21.10;61.50;;;;;;4894081;28;87961;-68
2022/03/29 10:30:58;;;;;;;13.60;7.22;;;21.10;61.70;;;;;;4880137;28;88180;-68
2022/03/29 10:33:52;;;;;;;15.23;7.55;;;21.10;61.80;;;;;;4888257;28;91756;-67
2022/03/29 10:36:24;;;;;;;15.85;7.45;;;21.10;61.80;;;;;;4894117;28;89326;-68
2022/03/29 10:39:47;;;;;;;15.30;7.95;;;21.10;62.00;;;;;;4896101;28;88294;-68
2022/03/29 10:43:16;;;;;;;14.82;6.35;;;21.10;62.50;;;;;;4876549;28;89055;-68
2022/03/29 10:46:39;;;;;;;13.90;6.97;;;21.10;62.80;;;;;;4882127;28;87529;-68
2022/03/29 10:49:28;;;;;;;14.68;6.50;;;21.10;62.50;;;;;;4884514;28;89452;-68
2022/03/29 10:52:07;;;;;;;17.45;7.10;;;21.10;62.60;;;;;;4885680;28;87889;-68
2022/03/29 10:54:53;;;;;;;15.82;6.32;;;21.10;62.70;;;;;;4888285;28;88297;-67
2022/03/29 10:57:24;;;;;;;16.48;7.28;;;21.10;62.30;;;;;;4895828;28;87934;-68
2022/03/29 11:00:21;;;;;;;27.25;10.15;;;21.10;62.30;;;;;;4887079;28;89565;-68
2022/03/29 11:03:08;;;;;;;20.15;10.02;;;21.10;61.50;;;;;;4890197;28;87716;-68
2022/03/29 11:06:26;;;;;;;19.77;8.27;;;21.10;61.30;;;;;;4898197;28;87527;-68
2022/03/29 11:09:24;;;;;;;12.43;7.50;;;21.10;61.00;;;;;;4870526;28;91307;-68
2022/03/29 11:11:51;;;;;;;19.13;8.30;;;21.10;61.70;;;;;;4895835;28;90729;-68
2022/03/29 11:14:29;;;;;;;11.32;6.97;;;21.10;61.70;;;;;;4896283;28;87833;-67
2022/03/29 11:17:18;;;;;;;14.52;8.30;;;21.10;61.00;;;;;;4890054;28;88509;-67
2022/03/29 11:19:51;;;;;;;15.15;9.30;;;21.10;60.50;;;;;;4906854;28;91354;-67
2022/03/29 11:22:22;;;;;;;13.32;7.13;;;21.10;60.20;;;;;;4894501;28;87970;-68
2022/03/29 11:24:49;;;;;;;18.48;8.38;;;21.10;61.10;;;;;;4895873;28;87635;-68
2022/03/29 11:27:22;;;;;;;14.00;8.23;;;21.10;61.20;;;;;;4894657;28;87002;-68
2022/03/29 11:29:52;;;;;;;15.82;8.00;;;21.10;60.30;;;;;;4895240;28;87112;-67
2022/03/29 11:32:18;;;;;;;;;;;21.10;59.80;;;;;;4897238;28;88208;-68
2022/03/29 11:34:45;;;;;;;13.48;8.30;;;21.10;58.60;;;;;;4893953;28;89091;-68
2022/03/29 11:37:32;;;;;;;16.23;8.65;;;21.10;59.10;;;;;;4893861;28;90316;-68
2022/03/29 11:40:01;;;;;;;11.05;6.82;;;21.10;59.40;;;;;;4890465;28;91573;-68
2022/03/29 11:42:49;;;;;;;13.65;8.45;;;21.10;59.90;;;;;;4873619;28;87841;-68
2022/03/29 11:45:30;;;;;;;16.65;8.60;;;21.10;59.70;;;;;;4897411;28;87154;-68
2022/03/29 11:48:07;;;;;;;14.18;8.05;;;21.10;59.20;;;;;;4890104;28;89723;-67
2022/03/29 11:53:18;;;;;;;14.75;6.28;;;21.10;60.70;;;;;;4910242;28;87160;-68
2022/03/29 11:55:53;;;;;;;10.32;6.22;;;21.10;61.10;;;;;;4913207;28;88294;-68
2022/03/29 11:58:27;;;;;;;12.65;8.38;;;21.10;61.20;;;;;;4896265;28;89864;-68
2022/03/29 12:01:02;;;;;;;11.73;6.15;;;21.10;59.80;;;;;;4913024;28;89025;-67
2022/03/29 12:03:33;;;;;;;13.30;6.35;;;21.10;60.30;;;;;;4913584;28;87928;-68
2022/03/29 12:06:14;;;;;;;13.25;6.15;;;21.10;59.90;;;;;;4912120;28;87263;-67
2022/03/29 12:08:53;;;;;;;10.05;6.05;;;21.10;60.40;;;;;;4911474;28;88099;-68
2022/03/29 12:11:24;;;;;;;11.48;6.57;;;21.10;60.10;;;;;;4911575;28;87996;-67
2022/03/29 12:14:18;;;;;;;10.93;6.70;;;21.10;59.70;;;;;;4912646;28;87885;-67
2022/03/29 12:16:57;;;;;;;12.23;6.50;;;21.10;59.20;;;;;;4913285;28;87797;-68
2022/03/29 12:19:25;;;;;;;12.75;7.38;;;21.20;59.90;;;;;;4913544;28;87608;-68
2022/03/29 12:21:56;;;;;;;14.67;8.40;;;21.10;59.40;;;;;;4910739;28;88195;-67
2022/03/29 12:24:23;;;;;;;12.70;7.75;;;21.10;59.40;;;;;;4910300;28;90858;-68
2022/03/29 12:26:57;;;;;;;12.00;7.05;;;21.10;58.60;;;;;;4912027;28;88876;-68
2022/03/29 12:29:28;;;;;;;13.15;7.15;;;21.10;59.60;;;;;;4913048;28;87571;-67
2022/03/29 12:31:55;;;;;;;13.48;7.32;;;21.10;59.60;;;;;;4910081;28;90390;-68
2022/03/29 12:34:29;;;;;;;13.85;7.95;;;21.10;59.60;;;;;;4913779;28;88189;-68
2022/03/29 12:36:58;;;;;;;10.40;6.32;;;21.10;59.70;;;;;;4910826;28;87172;-68
2022/03/29 12:39:33;;;;;;;10.33;6.70;;;21.10;60.10;;;;;;4910524;28;88390;-68
2022/03/29 12:41:58;;;;;;;12.20;5.93;;;21.10;60.50;;;;;;4912353;28;89812;-68
2022/03/29 12:44:47;;;;;;;8.80;5.68;;;21.10;60.50;;;;;;4912363;28;87805;-67
2022/03/29 12:47:21;;;;;;;13.35;7.55;;;21.10;60.80;;;;;;4910143;28;87073;-68
2022/03/29 12:50:09;;;;;;;10.60;6.05;;;21.10;59.10;;;;;;4895155;28;87464;-68
2022/03/29 12:53:07;;;;;;;8.48;6.50;;;21.10;59.20;;;;;;4910659;28;89210;-68
2022/03/29 12:56:25;;;;;;;21.15;14.75;;;21.10;59.20;;;;;;4908907;28;90835;-68
2022/03/29 12:58:56;;;;;;;25.15;15.70;;;21.10;52.50;;;;;;4887672;28;88437;-68
2022/03/29 13:01:57;;;;;;;23.98;17.15;;;21.00;52.00;;;;;;4908023;28;87806;-68
2022/03/29 13:05:03;;;;;;;28.80;18.85;;;21.00;49.70;;;;;;4907649;28;88415;-69
2022/03/29 13:07:49;;;;;;;22.65;14.63;;;21.00;48.90;;;;;;4910294;28;88013;-69
2022/03/29 13:10:32;;;;;;;25.35;17.45;;;21.00;52.00;;;;;;4908028;28;87726;-69
2022/03/29 13:13:00;;;;;;;29.05;18.42;;;21.00;52.20;;;;;;4909266;28;87638;-68
2022/03/29 13:15:57;;;;;;;29.42;19.27;;;21.00;50.60;;;;;;4901575;28;91103;-69
2022/03/29 13:18:26;;;;;;;26.23;19.10;;;21.00;50.30;;;;;;4907320;28;90876;-68
2022/03/29 13:21:05;;;;;;;28.50;19.43;;;21.10;51.30;;;;;;4911133;28;88619;-69
2022/03/29 13:24:07;;;;;;;24.73;18.98;;;21.10;50.70;;;;;;4910007;28;89141;-68